Time;durP1;ratioP1;P1;durP2;ratioP2;P2;SDS_P1;SDS_P2;PMS_P1;PMS_P2;Temp;Humidity;BMP_temperature;BMP_pressure;BME280_temperature;BME280_humidity;BME280_pressure;Samples;Min_cycle;Max_cycle;Signal;HPM_P1;HPM_P2
2023/03/15 00:00:16;;;;;;;6.25;1.55;;;;;;;1.27;100.00;100746.50;10418362;28;20040;-78
2023/03/15 00:05:16;;;;;;;2.22;0.88;;;;;;;1.08;100.00;100720.91;10414083;28;20037;-76
2023/03/15 00:10:17;;;;;;;6.40;1.40;;;;;;;1.22;100.00;100762.56;10430310;28;20059;-77
2023/03/15 00:15:17;;;;;;;11.35;2.00;;;;;;;1.35;100.00;100776.22;10430674;28;20052;-77
2023/03/15 00:20:18;;;;;;;5.13;1.20;;;;;;;1.49;100.00;100792.56;10447833;28;20037;-76
2023/03/15 00:25:19;;;;;;;9.55;1.40;;;;;;;1.30;100.00;100773.25;10448082;28;20052;-75
2023/03/15 00:30:19;;;;;;;10.48;2.22;;;;;;;1.47;100.00;100809.06;10431219;28;20441;-76
2023/03/15 00:35:20;;;;;;;5.40;1.70;;;;;;;1.36;100.00;100799.56;10380678;28;20042;-77
2023/03/15 00:40:21;;;;;;;10.80;1.80;;;;;;;1.28;100.00;100813.31;10371760;28;20103;-78
2023/03/15 00:45:22;;;;;;;6.07;1.40;;;;;;;1.27;100.00;100844.16;10371719;28;20030;-77
2023/03/15 00:50:23;;;;;;;6.20;1.63;;;;;;;1.20;100.00;100851.41;10350262;28;20049;-78
2023/03/15 00:55:25;;;;;;;8.02;1.60;;;;;;;1.13;100.00;100854.00;10350908;28;20045;-79
2023/03/15 01:00:26;;;;;;;5.53;1.40;;;;;;;0.97;100.00;100838.00;10349045;28;20038;-77
2023/03/15 01:05:27;;;;;;;11.23;2.30;;;;;;;0.81;100.00;100849.94;10363493;28;20042;-78
2023/03/15 01:10:27;;;;;;;5.90;2.03;;;;;;;0.88;100.00;100877.94;10337423;28;20496;-79
2023/03/15 01:15:28;;;;;;;7.82;1.77;;;;;;;0.76;100.00;100879.47;10339378;28;20045;-78
2023/03/15 01:20:28;;;;;;;14.43;2.08;;;;;;;0.71;100.00;100898.16;10356637;28;20038;-72
2023/03/15 01:25:29;;;;;;;11.90;2.05;;;;;;;0.78;100.00;100899.06;10357544;28;20122;-78
2023/03/15 01:30:29;;;;;;;9.65;1.80;;;;;;;0.67;100.00;100876.03;10323888;28;20038;-79
2023/03/15 01:35:30;;;;;;;11.38;1.83;;;;;;;0.70;100.00;100910.03;10338918;28;20041;-78
2023/03/15 01:40:30;;;;;;;8.13;2.17;;;;;;;0.65;100.00;100926.03;10329292;28;20046;-79
2023/03/15 01:45:52;;;;;;;12.45;2.08;;;;;;;0.63;100.00;100930.78;10347462;28;20045;-78
2023/03/15 01:50:53;;;;;;;12.18;2.85;;;;;;;0.49;100.00;100906.19;10368790;28;20042;-78
2023/03/15 01:55:54;;;;;;;8.48;1.40;;;;;;;0.56;100.00;100936.13;10392264;28;20030;-78
2023/03/15 02:00:54;;;;;;;14.30;2.05;;;;;;;0.51;100.00;100928.53;10400005;28;20510;-79
2023/03/15 02:06:00;;;;;;;12.98;1.83;;;;;;;0.56;100.00;100949.66;10419425;28;20475;-78
2023/03/15 02:11:01;;;;;;;13.63;1.38;;;;;;;0.62;100.00;100953.47;10436530;28;20040;-78
2023/03/15 02:16:05;;;;;;;8.63;1.50;;;;;;;0.60;100.00;100962.63;10419807;28;20078;-77
2023/03/15 02:21:21;;;;;;;12.32;2.25;;;;;;;0.63;100.00;100971.44;10453135;28;20493;-78
2023/03/15 02:26:23;;;;;;;6.70;1.50;;;;;;;0.74;100.00;100987.19;10431521;28;20056;-78
2023/03/15 02:31:24;;;;;;;5.38;1.10;;;;;;;0.93;100.00;101005.63;10392687;28;20037;-78
2023/03/15 02:36:26;;;;;;;8.77;1.52;;;;;;;1.07;100.00;100989.53;10381215;28;20048;-78
2023/03/15 02:41:32;;;;;;;3.95;1.23;;;;;;;1.18;100.00;100991.75;10393977;28;20089;-78
2023/03/15 02:46:33;;;;;;;8.65;1.60;;;;;;;1.19;100.00;101004.28;10410859;28;20045;-77
2023/03/15 02:51:33;;;;;;;9.80;1.20;;;;;;;1.12;100.00;101008.78;10409897;28;20030;-76
2023/03/15 02:56:34;;;;;;;9.73;2.13;;;;;;;1.03;100.00;101018.03;10393164;28;20030;-76
2023/03/15 03:01:37;;;;;;;7.63;1.55;;;;;;;1.08;100.00;101035.44;10393342;28;20040;-76
2023/03/15 03:06:38;;;;;;;6.20;2.08;;;;;;;0.98;100.00;101051.16;10408192;28;20193;-76
2023/03/15 03:11:38;;;;;;;6.75;1.40;;;;;;;0.89;100.00;101052.25;10375457;28;20050;-77
2023/03/15 03:16:40;;;;;;;12.27;1.50;;;;;;;0.71;100.00;101049.91;10390649;28;20199;-77
2023/03/15 03:21:43;;;;;;;8.20;2.88;;;;;;;0.55;100.00;101062.59;10376435;28;20540;-77
2023/03/15 03:26:44;;;;;;;9.30;1.65;;;;;;;0.38;100.00;101053.78;10375767;28;20049;-77
2023/03/15 03:31:45;;;;;;;7.88;1.50;;;;;;;0.33;100.00;101072.44;10375331;28;20033;-77
2023/03/15 03:36:47;;;;;;;9.82;2.03;;;;;;;0.26;100.00;101086.88;10390923;28;20037;-77
2023/03/15 03:41:48;;;;;;;11.00;1.83;;;;;;;0.16;100.00;101084.41;10375982;28;20041;-77
2023/03/15 03:46:49;;;;;;;6.63;1.70;;;;;;;0.09;100.00;101100.53;10392473;28;20037;-77
2023/03/15 03:51:49;;;;;;;17.67;2.43;;;;;;;0.07;100.00;101116.13;10390993;28;20037;-77
2023/03/15 03:56:50;;;;;;;10.17;1.80;;;;;;;0.11;100.00;101132.88;10390722;28;20038;-77
2023/03/15 04:01:50;;;;;;;11.80;2.03;;;;;;;0.07;100.00;101151.31;10373386;28;20037;-77
2023/03/15 04:06:51;;;;;;;9.60;1.75;;;;;;;-0.13;100.00;101133.84;10408746;28;20057;-77
2023/03/15 04:11:51;;;;;;;10.93;1.92;;;;;;;-0.10;100.00;101165.97;10374001;28;20037;-77
2023/03/15 04:16:53;;;;;;;6.28;1.70;;;;;;;0.14;100.00;101195.59;10390035;28;20049;-77
2023/03/15 04:21:53;;;;;;;10.27;2.17;;;;;;;0.42;100.00;101214.06;10405798;28;20038;-77
2023/03/15 04:26:56;;;;;;;10.40;1.63;;;;;;;0.64;100.00;101225.09;10407030;28;20029;-77
2023/03/15 04:32:03;;;;;;;9.88;1.90;;;;;;;0.76;100.00;101213.63;10373597;28;20517;-77
2023/03/15 04:37:04;;;;;;;7.13;1.90;;;;;;;0.68;100.00;101215.56;10391086;28;20041;-77
2023/03/15 04:42:05;;;;;;;11.13;1.83;;;;;;;0.51;100.00;101212.97;10352388;28;20037;-77
2023/03/15 04:47:05;;;;;;;16.67;3.38;;;;;;;0.53;100.00;101243.44;10358171;28;20042;-77
2023/03/15 04:52:06;;;;;;;6.33;1.90;;;;;;;0.48;100.00;101240.44;10340584;28;20041;-77
2023/03/15 04:57:06;;;;;;;12.35;2.38;;;;;;;-0.01;100.00;101181.97;10357241;28;20029;-78
2023/03/15 05:02:07;;;;;;;6.32;1.80;;;;;;;0.24;100.00;101240.56;10374836;28;20030;-78
2023/03/15 05:07:07;;;;;;;14.13;1.73;;;;;;;0.05;100.00;101234.56;10393194;28;20037;-77
2023/03/15 05:12:08;;;;;;;10.32;1.80;;;;;;;-0.02;100.00;101239.03;10340589;28;20191;-77
2023/03/15 05:17:09;;;;;;;9.40;2.38;;;;;;;-0.35;100.00;101222.03;10365291;28;20035;-78
2023/03/15 05:22:09;;;;;;;9.85;2.53;;;;;;;-0.31;100.00;101258.53;10356772;28;20041;-76
2023/03/15 05:27:12;;;;;;;9.30;2.22;;;;;;;-0.46;100.00;101267.38;10372603;28;20088;-77
2023/03/15 05:32:12;;;;;;;8.13;1.42;;;;;;;-0.67;100.00;101257.09;10355627;28;20030;-76
2023/03/15 05:37:13;;;;;;;9.27;1.77;;;;;;;-0.66;100.00;101276.91;10412451;28;20041;-76
2023/03/15 05:42:14;;;;;;;4.20;1.67;;;;;;;-0.75;100.00;101294.97;10411229;28;20045;-76
2023/03/15 05:47:14;;;;;;;8.45;1.75;;;;;;;-0.81;100.00;101295.63;10379018;28;20051;-76
2023/03/15 05:52:15;;;;;;;7.70;1.98;;;;;;;-0.93;100.00;101287.06;10376213;28;20049;-76
2023/03/15 05:57:15;;;;;;;5.30;1.90;;;;;;;-0.85;100.00;101322.19;10395072;28;20045;-77
2023/03/15 06:02:16;;;;;;;10.50;2.13;;;;;;;-0.91;100.00;101322.88;10411246;28;20038;-72
2023/03/15 06:07:16;;;;;;;9.88;1.83;;;;;;;-0.76;100.00;101347.38;10379185;28;20110;-76
2023/03/15 06:12:18;;;;;;;6.50;2.27;;;;;;;-0.66;100.00;101352.63;10394867;28;20041;-76
2023/03/15 06:17:19;;;;;;;6.77;1.50;;;;;;;-0.68;100.00;101352.78;10395123;28;20044;-77
2023/03/15 06:22:19;;;;;;;7.18;2.63;;;;;;;-0.54;100.00;101366.63;10394393;28;20077;-77
2023/03/15 06:27:20;;;;;;;10.23;1.50;;;;;;;-0.45;100.00;101362.91;10409787;28;20105;-76
2023/03/15 06:32:21;;;;;;;6.27;2.77;;;;;;;-0.31;100.00;101378.47;10410436;28;20037;-76
2023/03/15 06:37:22;;;;;;;9.55;2.20;;;;;;;-0.11;100.00;101387.03;10352354;28;20042;-77
2023/03/15 06:42:22;;;;;;;8.43;1.70;;;;;;;0.11;100.00;101366.53;10364725;28;20047;-76
2023/03/15 06:47:23;;;;;;;11.33;3.23;;;;;;;0.31;100.00;101391.38;10392806;28;20385;-77
2023/03/15 06:52:23;;;;;;;7.70;2.08;;;;;;;0.40;100.00;101403.00;10376391;28;20049;-76
2023/03/15 06:57:24;;;;;;;6.85;1.60;;;;;;;0.25;100.00;101369.53;10409922;28;20144;-77
2023/03/15 07:02:24;;;;;;;10.48;2.20;;;;;;;0.55;100.00;101401.25;10375804;28;20397;-76
2023/03/15 07:07:25;;;;;;;10.00;2.65;;;;;;;0.68;100.00;101416.09;10409875;28;20076;-76
2023/03/15 07:12:25;;;;;;;9.85;1.85;;;;;;;0.69;100.00;101415.09;10384607;28;20498;-76
2023/03/15 07:17:26;;;;;;;6.05;1.20;;;;;;;0.82;100.00;101430.78;10345160;28;20422;-76
2023/03/15 07:22:26;;;;;;;5.78;1.40;;;;;;;0.94;100.00;101430.22;10370706;28;20038;-76
2023/03/15 07:27:28;;;;;;;11.18;2.42;;;;;;;0.92;100.00;101432.25;10350078;28;20045;-76
2023/03/15 07:32:30;;;;;;;7.25;1.15;;;;;;;1.02;100.00;101445.59;10309206;28;20039;-76
2023/03/15 07:37:31;;;;;;;10.10;1.83;;;;;;;1.02;100.00;101431.19;10326928;28;20094;-75
2023/03/15 07:42:31;;;;;;;10.55;2.03;;;;;;;1.18;100.00;101444.69;10311548;28;20054;-76
2023/03/15 07:47:32;;;;;;;7.65;2.03;;;;;;;1.28;100.00;101463.41;10342154;28;20046;-76
2023/03/15 07:52:32;;;;;;;7.63;1.38;;;;;;;1.41;100.00;101474.53;10328056;28;20110;-70
2023/03/15 07:57:32;;;;;;;9.10;1.90;;;;;;;1.12;100.00;101404.72;10365069;28;20053;-76
2023/03/15 08:02:33;;;;;;;9.05;2.53;;;;;;;1.61;100.00;101472.19;10349460;28;20034;-75
2023/03/15 08:07:35;;;;;;;12.50;2.55;;;;;;;1.76;100.00;101478.53;10350629;28;20045;-75
2023/03/15 08:12:35;;;;;;;5.70;1.60;;;;;;;1.97;100.00;101486.00;10350480;28;20045;-74
2023/03/15 08:17:36;;;;;;;5.00;1.90;;;;;;;2.09;100.00;101486.41;10364711;28;20056;-76
2023/03/15 08:22:37;;;;;;;13.35;1.73;;;;;;;2.32;100.00;101504.53;10349061;28;20053;-76
2023/03/15 08:27:38;;;;;;;6.15;1.25;;;;;;;2.39;100.00;101494.59;10332068;28;20053;-75
2023/03/15 08:32:39;;;;;;;4.20;1.45;;;;;;;2.63;100.00;101507.94;10332632;28;20395;-75
2023/03/15 08:37:40;;;;;;;8.85;2.38;;;;;;;2.74;100.00;101498.47;10343713;28;20096;-75
2023/03/15 08:42:40;;;;;;;6.68;1.88;;;;;;;2.86;100.00;101512.47;10366654;28;20034;-75
2023/03/15 08:47:41;;;;;;;5.18;1.10;;;;;;;3.18;100.00;101532.13;10352743;28;20042;-75
2023/03/15 08:52:41;;;;;;;9.73;1.40;;;;;;;3.35;100.00;101541.78;10349026;28;20033;-74
2023/03/15 08:57:42;;;;;;;10.60;1.35;;;;;;;3.51;100.00;101543.41;10366426;28;20498;-69
2023/03/15 09:02:43;;;;;;;10.85;3.45;;;;;;;3.68;100.00;101538.63;10340349;28;21506;-75
2023/03/15 09:07:44;;;;;;;8.88;1.38;;;;;;;3.74;100.00;101524.22;10383781;28;20045;-74
2023/03/15 09:12:46;;;;;;;7.97;2.53;;;;;;;3.94;100.00;101526.31;10387809;28;20349;-75
2023/03/15 09:17:50;;;;;;;7.82;2.20;;;;;;;4.10;100.00;101526.03;10384661;28;20053;-76
2023/03/15 09:22:52;;;;;;;7.05;1.67;;;;;;;4.31;100.00;101546.16;10384633;28;20042;-76
2023/03/15 09:27:53;;;;;;;6.68;1.13;;;;;;;4.52;100.00;101540.63;10364758;28;20033;-76
2023/03/15 09:32:53;;;;;;;10.93;2.17;;;;;;;4.90;100.00;101545.75;10358991;28;20092;-77
2023/03/15 09:37:54;;;;;;;5.65;1.27;;;;;;;4.98;100.00;101518.31;10343424;28;20531;-77
2023/03/15 09:43:03;;;;;;;8.02;1.25;;;;;;;5.25;100.00;101527.47;10373945;28;20045;-77
2023/03/15 09:48:06;;;;;;;7.32;1.30;;;;;;;5.37;100.00;101519.50;10392209;28;20047;-78
2023/03/15 09:53:16;;;;;;;7.03;2.38;;;;;;;5.49;100.00;101532.59;10417804;28;20041;-78
2023/03/15 09:58:19;;;;;;;8.55;1.52;;;;;;;5.80;100.00;101538.34;10409493;28;20049;-79
2023/03/15 10:03:40;;;;;;;6.75;1.70;;;;;;;5.99;100.00;101522.22;10359127;28;20042;-79
2023/03/15 10:08:41;;;;;;;7.68;1.20;;;;;;;5.96;100.00;101528.13;10400878;28;20061;-79
2023/03/15 10:13:41;;;;;;;5.32;0.93;;;;;;;5.97;100.00;101541.56;10340092;28;20072;-79
2023/03/15 10:18:48;;;;;;;7.05;1.25;;;;;;;6.13;100.00;101543.06;10391577;28;20038;-79
2023/03/15 10:23:49;;;;;;;;;;;;;;;5.35;100.00;101415.13;10389961;28;20044;-79
2023/03/15 10:28:50;;;;;;;5.18;1.13;;;;;;;6.66;100.00;101547.72;10402479;28;19925;-79
2023/03/15 10:33:51;;;;;;;13.27;1.42;;;;;;;6.71;100.00;101544.34;10395226;28;20605;-78
2023/03/15 10:38:51;;;;;;;6.63;0.95;;;;;;;6.81;100.00;101556.53;10367567;28;20038;-79
2023/03/15 10:43:57;;;;;;;6.68;1.60;;;;;;;7.19;100.00;101563.19;10338904;28;20045;-78
2023/03/15 10:48:59;;;;;;;11.38;2.45;;;;;;;7.04;99.48;101558.81;10372615;28;20052;-82
2023/03/15 10:54:10;;;;;;;4.95;1.17;;;;;;;6.86;95.74;101517.56;10376497;28;20045;-77
2023/03/15 10:59:20;;;;;;;4.35;0.82;;;;;;;7.22;95.14;101580.03;10370146;28;20037;-78
2023/03/15 11:04:22;;;;;;;8.95;1.02;;;;;;;7.00;95.38;101576.72;10366016;28;20045;-78
2023/03/15 11:09:25;;;;;;;8.20;0.93;;;;;;;7.16;96.51;101599.25;10368193;28;20030;-77
2023/03/15 11:14:37;;;;;;;3.22;1.05;;;;;;;7.28;92.70;101594.78;10335113;28;20034;-78
2023/03/15 11:19:44;;;;;;;4.07;1.25;;;;;;;7.12;95.99;101612.50;10368226;28;20038;-76
2023/03/15 11:24:44;;;;;;;5.82;1.15;;;;;;;7.17;97.07;101599.03;10336095;28;20050;-76
2023/03/15 11:29:54;;;;;;;12.95;3.08;;;;;;;7.29;91.39;101590.97;10351443;28;20030;-76
2023/03/15 11:35:01;;;;;;;5.97;1.63;;;;;;;7.50;93.51;101606.28;10385806;28;20520;-76
2023/03/15 11:40:15;;;;;;;5.20;1.23;;;;;;;8.21;90.43;101591.63;10360198;28;20064;-77
2023/03/15 11:45:40;;;;;;;8.10;1.23;;;;;;;7.72;87.83;101598.63;10400997;28;20029;-75
2023/03/15 11:50:41;;;;;;;6.13;1.58;;;;;;;7.94;84.76;101587.34;10367753;28;20061;-76
2023/03/15 11:55:46;;;;;;;4.97;0.95;;;;;;;8.49;86.96;101573.91;10407605;28;20037;-73
2023/03/15 12:00:49;;;;;;;7.90;1.20;;;;;;;8.62;84.10;101584.81;10407127;28;20063;-76
2023/03/15 12:06:19;;;;;;;7.50;1.25;;;;;;;8.86;86.96;101583.09;10407757;28;20491;-76
2023/03/15 12:11:19;;;;;;;4.38;0.75;;;;;;;8.65;87.44;101595.31;10392083;28;20465;-75
2023/03/15 12:16:21;;;;;;;4.70;0.77;;;;;;;9.22;82.56;101588.84;10406949;28;20052;-74
2023/03/15 12:21:23;;;;;;;4.63;1.00;;;;;;;9.61;82.42;101581.22;10400908;28;20050;-75
2023/03/15 12:26:24;;;;;;;5.95;0.88;;;;;;;10.25;77.91;101581.63;10380101;28;20049;-75
2023/03/15 12:31:25;;;;;;;3.85;0.90;;;;;;;10.62;71.61;101541.03;10366781;28;20122;-75
2023/03/15 12:36:38;;;;;;;3.78;1.15;;;;;;;11.53;71.81;101573.66;10386114;28;20145;-75
2023/03/15 12:41:40;;;;;;;4.78;1.10;;;;;;;11.68;68.29;101564.88;10344382;28;20057;-76
2023/03/15 12:46:41;;;;;;;6.15;1.00;;;;;;;11.87;67.19;101560.84;10387241;28;20376;-74
2023/03/15 12:52:02;;;;;;;2.50;0.80;;;;;;;11.59;67.40;101572.69;10405068;28;20066;-75
2023/03/15 12:57:03;;;;;;;6.07;0.90;;;;;;;11.65;69.86;101579.97;10389176;28;20117;-75
2023/03/15 13:02:30;;;;;;;5.93;1.05;;;;;;;12.41;66.02;101560.47;10388380;28;20094;-76
2023/03/15 13:07:56;;;;;;;5.25;1.00;;;;;;;12.77;60.45;101551.94;10384579;28;20067;-75
2023/03/15 13:13:02;;;;;;;4.57;0.80;;;;;;;12.21;62.26;101569.22;10416635;28;20045;-76
2023/03/15 13:18:16;;;;;;;5.80;0.82;;;;;;;11.51;63.96;101579.44;10413273;28;20103;-76
2023/03/15 13:23:27;;;;;;;2.92;1.02;;;;;;;10.47;62.63;101582.78;10396102;28;20060;-76
2023/03/15 13:28:36;;;;;;;2.53;0.77;;;;;;;9.69;60.67;101581.78;10397941;28;20087;-76
2023/03/15 13:33:36;;;;;;;4.80;0.65;;;;;;;11.41;58.68;101573.69;10399183;28;20655;-76
2023/03/15 13:38:42;;;;;;;6.15;0.80;;;;;;;10.62;62.02;101585.06;10332068;28;20049;-76
2023/03/15 13:43:42;;;;;;;5.55;0.80;;;;;;;10.70;64.45;101597.66;10354102;28;20422;-76
2023/03/15 13:48:43;;;;;;;6.47;0.88;;;;;;;11.75;61.17;101579.34;10333141;28;20694;-77
2023/03/15 13:53:45;;;;;;;3.83;1.25;;;;;;;12.27;58.82;101582.03;10354036;28;20470;-77
2023/03/15 13:58:45;;;;;;;4.80;1.00;;;;;;;12.41;58.07;101577.03;10355766;28;20049;-76
2023/03/15 14:03:47;;;;;;;6.07;0.80;;;;;;;13.25;56.58;101575.28;10338896;28;20437;-77
2023/03/15 14:08:48;;;;;;;3.53;0.75;;;;;;;14.42;55.90;101577.78;10338650;28;20034;-75
2023/03/15 14:13:49;;;;;;;2.28;0.63;;;;;;;13.91;54.66;101576.19;10370216;28;20098;-76
2023/03/15 14:18:51;;;;;;;2.08;0.90;;;;;;;13.45;53.12;101575.59;10372094;28;20066;-74
2023/03/15 14:23:52;;;;;;;6.97;1.10;;;;;;;12.79;54.72;101555.28;10313195;28;20152;-75
2023/03/15 14:28:58;;;;;;;4.85;1.30;;;;;;;13.00;54.82;101579.38;10298126;28;20046;-75
2023/03/15 14:34:28;;;;;;;;;;;;;;;11.09;57.97;101614.59;10352514;28;20038;-75
2023/03/15 14:39:41;;;;;;;5.03;1.10;;;;;;;10.11;61.46;101627.78;10339868;28;20004;-74
2023/03/15 14:44:41;;;;;;;3.47;1.00;;;;;;;9.84;60.91;101617.13;10349057;28;20127;-75
2023/03/15 14:49:42;;;;;;;4.05;1.15;;;;;;;11.07;57.70;101614.00;10348458;28;20038;-74
2023/03/15 14:54:46;;;;;;;6.72;1.10;;;;;;;12.20;57.34;101611.72;10362974;28;20053;-74
2023/03/15 14:59:48;;;;;;;5.10;1.17;;;;;;;12.23;55.96;101580.03;10297348;28;20030;-75
2023/03/15 15:04:49;;;;;;;4.38;0.68;;;;;;;12.55;53.87;101613.47;10365532;28;20042;-75
2023/03/15 15:09:49;;;;;;;4.43;1.00;;;;;;;12.45;52.63;101605.00;10344040;28;20045;-74
2023/03/15 15:14:50;;;;;;;7.05;1.95;;;;;;;11.87;54.73;101610.50;10329282;28;20035;-74
2023/03/15 15:19:50;;;;;;;6.03;0.93;;;;;;;11.36;55.29;101603.91;10303174;28;20113;-75
2023/03/15 15:24:51;;;;;;;4.10;0.90;;;;;;;11.34;55.86;101614.31;10353290;28;20033;-74
2023/03/15 15:29:51;;;;;;;2.83;0.60;;;;;;;11.21;55.44;101614.59;10334134;28;20042;-75
2023/03/15 15:34:53;;;;;;;2.38;0.70;;;;;;;10.73;55.28;101610.13;10369572;28;20034;-75
2023/03/15 15:39:54;;;;;;;5.07;1.05;;;;;;;10.12;58.49;101626.69;10351312;28;20037;-75
2023/03/15 15:44:54;;;;;;;7.18;0.90;;;;;;;9.22;63.13;101638.31;10350405;28;20038;-68
2023/03/15 15:49:55;;;;;;;7.35;2.72;;;;;;;9.31;63.04;101633.41;10316961;28;21514;-74
2023/03/15 15:54:55;;;;;;;7.50;1.27;;;;;;;10.11;63.87;101647.03;10298454;28;20049;-74
2023/03/15 15:59:56;;;;;;;4.38;0.98;;;;;;;10.99;59.52;101625.38;10365934;28;20115;-75
2023/03/15 16:04:56;;;;;;;2.25;0.70;;;;;;;10.69;57.40;101631.81;10390087;28;20077;-75
2023/03/15 16:09:57;;;;;;;4.47;0.90;;;;;;;10.46;58.23;101622.41;10406830;28;20044;-75
2023/03/15 16:14:57;;;;;;;3.88;1.33;;;;;;;10.06;59.27;101559.66;10406734;28;20049;-74
2023/03/15 16:19:58;;;;;;;5.57;0.88;;;;;;;9.90;60.91;101660.19;10407560;28;20048;-75
2023/03/15 16:25:00;;;;;;;4.13;1.05;;;;;;;9.19;62.18;101660.75;10406468;28;20037;-75
2023/03/15 16:30:01;;;;;;;3.55;0.98;;;;;;;8.39;65.14;101667.69;10405858;28;20038;-75
2023/03/15 16:35:03;;;;;;;3.55;1.48;;;;;;;7.81;67.51;101682.31;10388260;28;20068;-76
2023/03/15 16:40:09;;;;;;;7.10;0.82;;;;;;;7.46;70.20;101685.34;10407357;28;20029;-74
2023/03/15 16:45:13;;;;;;;3.70;0.93;;;;;;;7.15;72.13;101707.06;10405422;28;20045;-75
2023/03/15 16:50:14;;;;;;;6.72;1.42;;;;;;;6.90;74.21;101718.66;10388772;28;20041;-75
2023/03/15 16:55:16;;;;;;;10.82;1.23;;;;;;;6.69;76.00;101710.63;10390358;28;20038;-75
2023/03/15 17:00:19;;;;;;;2.85;1.13;;;;;;;6.57;76.20;101724.06;10389592;28;20034;-75
2023/03/15 17:05:19;;;;;;;6.85;1.48;;;;;;;6.34;77.61;101719.81;10361170;28;20038;-75
2023/03/15 17:10:22;;;;;;;2.13;0.90;;;;;;;6.19;78.40;101730.91;10358582;28;20045;-75
2023/03/15 17:15:24;;;;;;;4.13;1.23;;;;;;;6.01;79.93;101736.06;10404463;28;20042;-75
2023/03/15 17:20:27;;;;;;;4.93;1.10;;;;;;;5.77;82.58;101740.16;10370749;28;20248;-74
2023/03/15 17:25:28;;;;;;;5.30;1.08;;;;;;;5.53;83.42;101730.53;10387777;28;20041;-74
2023/03/15 17:30:30;;;;;;;5.53;0.90;;;;;;;5.41;84.15;101754.81;10405700;28;20029;-75
2023/03/15 17:35:34;;;;;;;3.67;0.88;;;;;;;5.22;86.78;101745.41;10356503;28;20044;-75
2023/03/15 17:40:34;;;;;;;8.88;1.60;;;;;;;4.99;86.26;101743.75;10400804;28;20053;-75
2023/03/15 17:45:35;;;;;;;4.88;0.98;;;;;;;4.77;88.22;101750.25;10434440;28;20071;-75
2023/03/15 17:50:35;;;;;;;5.55;0.90;;;;;;;4.52;88.94;101742.44;10432723;28;20044;-74
2023/03/15 17:55:36;;;;;;;7.57;1.30;;;;;;;4.32;93.32;101757.72;10420592;28;20041;-75
2023/03/15 18:00:36;;;;;;;10.75;1.30;;;;;;;4.03;98.17;101776.66;10403543;28;20108;-75
2023/03/15 18:05:37;;;;;;;5.13;1.70;;;;;;;3.76;100.00;101789.06;10435301;28;20045;-75
2023/03/15 18:10:40;;;;;;;5.45;1.40;;;;;;;3.50;100.00;101796.81;10400152;28;20080;-74
2023/03/15 18:15:41;;;;;;;4.95;1.45;;;;;;;3.21;100.00;101793.00;10419841;28;20037;-74
2023/03/15 18:20:41;;;;;;;3.97;1.35;;;;;;;2.83;100.00;101780.19;10426386;28;20033;-75
2023/03/15 18:25:42;;;;;;;3.05;1.13;;;;;;;2.72;100.00;101798.78;10451592;28;20041;-76
2023/03/15 18:30:44;;;;;;;6.10;1.88;;;;;;;2.55;100.00;101815.22;10418070;28;20033;-75
2023/03/15 18:35:44;;;;;;;6.43;1.42;;;;;;;2.42;100.00;101823.09;10400700;28;20099;-76
2023/03/15 18:40:45;;;;;;;5.40;1.75;;;;;;;2.27;100.00;101822.97;10450571;28;20696;-75
2023/03/15 18:45:46;;;;;;;6.55;2.10;;;;;;;2.14;100.00;101828.97;10421704;28;20443;-75
2023/03/15 18:50:47;;;;;;;4.88;1.45;;;;;;;2.05;100.00;101835.47;10434183;28;20455;-75
2023/03/15 18:55:48;;;;;;;4.82;1.45;;;;;;;1.74;100.00;101811.78;10416750;28;20075;-76
2023/03/15 19:00:49;;;;;;;4.00;1.55;;;;;;;1.73;100.00;101829.06;10449542;28;20061;-75
2023/03/15 19:05:49;;;;;;;7.32;2.00;;;;;;;1.66;100.00;101835.38;10432828;28;20068;-76
2023/03/15 19:10:56;;;;;;;4.90;2.25;;;;;;;1.58;100.00;101839.78;10449540;28;20037;-76
2023/03/15 19:15:57;;;;;;;6.00;2.00;;;;;;;1.44;100.00;101843.19;10394369;28;20037;-76
2023/03/15 19:20:57;;;;;;;4.35;1.70;;;;;;;1.26;100.00;101835.25;10450073;28;20047;-76
2023/03/15 19:25:58;;;;;;;4.60;1.80;;;;;;;1.21;100.00;101843.03;10448710;28;20033;-76
2023/03/15 19:30:58;;;;;;;5.50;1.80;;;;;;;1.06;100.00;101839.31;10451376;28;20036;-76
2023/03/15 19:36:00;;;;;;;7.68;1.85;;;;;;;1.08;100.00;101848.13;10414423;28;20037;-76
2023/03/15 19:41:02;;;;;;;4.72;1.30;;;;;;;0.94;100.00;101831.47;10449554;28;20037;-76
2023/03/15 19:46:06;;;;;;;11.27;2.35;;;;;;;0.93;100.00;101853.31;10414206;28;20048;-76
2023/03/15 19:51:07;;;;;;;5.53;2.55;;;;;;;0.88;100.00;101864.69;10431771;28;20044;-76
2023/03/15 19:56:08;;;;;;;2.92;1.77;;;;;;;0.81;100.00;101858.25;10372913;28;20034;-77
2023/03/15 20:01:10;;;;;;;5.53;2.15;;;;;;;0.76;100.00;101864.13;10390035;28;20038;-76
2023/03/15 20:06:13;;;;;;;7.78;3.13;;;;;;;0.79;100.00;101860.28;10360782;28;20041;-76
2023/03/15 20:11:18;;;;;;;5.70;3.00;;;;;;;0.59;100.00;101836.16;10357269;28;20311;-76
2023/03/15 20:16:20;;;;;;;4.18;2.55;;;;;;;0.68;100.00;101863.28;10406800;28;20037;-76
2023/03/15 20:21:21;;;;;;;7.47;3.00;;;;;;;0.47;100.00;101833.91;10389686;28;20048;-75
2023/03/15 20:26:22;;;;;;;4.35;2.30;;;;;;;0.41;100.00;101846.25;10389882;28;20043;-78
2023/03/15 20:31:23;;;;;;;5.38;2.53;;;;;;;0.15;100.00;101809.25;10372812;28;20057;-76
2023/03/15 20:36:23;;;;;;;5.97;2.80;;;;;;;-0.31;100.00;101787.03;10389166;28;20042;-76
2023/03/15 20:41:24;;;;;;;6.90;2.65;;;;;;;0.10;100.00;101830.53;10391748;28;20040;-75
2023/03/15 20:46:24;;;;;;;7.07;2.65;;;;;;;0.09;100.00;101855.94;10392382;28;20034;-75
2023/03/15 20:51:25;;;;;;;8.55;3.08;;;;;;;-0.14;100.00;101825.03;10388397;28;20046;-76
2023/03/15 20:56:26;;;;;;;9.07;3.43;;;;;;;-0.03;100.00;101854.50;10405570;28;20060;-76
2023/03/15 21:01:27;;;;;;;8.45;4.03;;;;;;;-0.05;100.00;101857.38;10404243;28;20045;-76
2023/03/15 21:06:27;;;;;;;7.03;3.63;;;;;;;-0.08;100.00;101852.28;10389150;28;20045;-75
2023/03/15 21:11:29;;;;;;;9.35;3.40;;;;;;;-0.22;100.00;101829.34;10445131;28;20505;-75
2023/03/15 21:16:32;;;;;;;6.60;3.65;;;;;;;-0.15;100.00;101853.06;10407318;28;20041;-75
2023/03/15 21:21:33;;;;;;;6.93;3.25;;;;;;;-0.19;100.00;101849.00;10438716;28;20037;-74
2023/03/15 21:26:34;;;;;;;7.82;3.65;;;;;;;-0.27;100.00;101847.94;10435609;28;20036;-76
2023/03/15 21:31:35;;;;;;;9.18;4.07;;;;;;;-0.33;100.00;101843.16;10436930;28;20033;-75
2023/03/15 21:36:36;;;;;;;7.13;3.47;;;;;;;-0.47;100.00;101822.94;10421442;28;20033;-75
2023/03/15 21:41:36;;;;;;;8.88;3.55;;;;;;;-0.45;100.00;101831.75;10431489;28;20042;-75
2023/03/15 21:46:37;;;;;;;6.27;3.50;;;;;;;-0.53;100.00;101817.31;10429147;28;20040;-75
2023/03/15 21:51:38;;;;;;;7.90;2.90;;;;;;;-0.55;100.00;101822.03;10432065;28;20258;-76
2023/03/15 21:56:39;;;;;;;9.43;3.55;;;;;;;-0.62;100.00;101817.25;10439956;28;20068;-76
2023/03/15 22:01:40;;;;;;;11.23;3.83;;;;;;;-0.63;100.00;101831.78;10432966;28;20044;-76
2023/03/15 22:06:41;;;;;;;6.70;3.00;;;;;;;-0.67;100.00;101830.38;10435623;28;20060;-76
2023/03/15 22:11:41;;;;;;;9.23;3.10;;;;;;;-0.80;100.00;101812.91;10426269;28;20041;-75
2023/03/15 22:16:42;;;;;;;11.63;2.92;;;;;;;-0.67;100.00;101829.56;10449738;28;20149;-75
2023/03/15 22:21:42;;;;;;;6.83;2.40;;;;;;;-0.69;100.00;101827.00;10415396;28;20060;-75
2023/03/15 22:26:43;;;;;;;6.23;2.97;;;;;;;-0.69;100.00;101827.00;10432759;28;20052;-76
2023/03/15 22:31:43;;;;;;;7.15;2.45;;;;;;;-0.69;100.00;101826.16;10401382;28;20064;-75
2023/03/15 22:36:44;;;;;;;9.87;3.20;;;;;;;-0.73;100.00;101820.19;10369909;28;20083;-75
2023/03/15 22:41:44;;;;;;;5.37;3.20;;;;;;;-0.68;100.00;101820.59;10396940;28;20029;-75
2023/03/15 22:46:45;;;;;;;10.43;3.00;;;;;;;-0.82;100.00;101783.31;10404363;28;20040;-75
2023/03/15 22:51:45;;;;;;;6.10;3.00;;;;;;;-0.61;100.00;101818.94;10410030;28;20037;-75
2023/03/15 22:56:46;;;;;;;7.03;2.65;;;;;;;-0.64;100.00;101794.94;10408648;28;20067;-69
2023/03/15 23:01:46;;;;;;;7.38;2.08;;;;;;;-0.61;100.00;101797.31;10408653;28;20045;-74
2023/03/15 23:06:47;;;;;;;4.88;2.72;;;;;;;-0.45;100.00;101823.63;10385370;28;20532;-75